< < Back
Terminal Aerodrome Forecast


Current Version              Previous Versions:   1  2  3  4  5  6  7  8  9  

Terminal Aerodrome Forecast

251
FTUS42 KCHS 251828 AAA
TAFSAV
TAF AMD
KSAV 251828Z 2518/2618 VRB05KT P6SM SCT050
     FM251900 15009KT P6SM SCT060
     FM260400 VRB04KT P6SM FEW050=



Latest METAR

707
SAUS80 KWBC 252000 RRA
MTRSAV
METAR KSAV 251953Z 13010KT 10SM SCT060 BKN080 BKN100 29/16 A3020 RMK AO2
SLP227 T02940156


USA.gov is the U.S. government's official web portal to all federal, state and local government web resources and services.